Time;durP1;ratioP1;P1;durP2;ratioP2;P2;SDS_P1;SDS_P2;PMS_P1;PMS_P2;Temp;Humidity;BMP_temperature;BMP_pressure;BME280_temperature;BME280_humidity;BME280_pressure;Samples;Min_cycle;Max_cycle;Signal;HPM_P1;HPM_P2
2021/10/14 14:38:48;;;;;;;0.00;0.00;;;;;;;20.31;47.26;101358.75;2598903;31;20971;-51
2021/10/14 14:41:16;;;;;;;0.00;0.00;;;;;;;20.45;47.09;101350.91;2608014;36;20038;-55
2021/10/14 14:43:43;;;;;;;0.03;0.03;;;;;;;20.54;47.21;101354.06;2610114;31;20034;-50
2021/10/14 14:46:20;;;;;;;0.00;0.00;;;;;;;20.54;47.01;101344.31;2608672;36;20057;-55
2021/10/14 14:48:47;;;;;;;0.00;0.00;;;;;;;20.49;46.37;101342.84;2609564;36;20039;-52
2021/10/14 14:51:14;;;;;;;0.00;0.00;;;;;;;20.40;47.17;101347.66;2609410;31;20046;-54
2021/10/14 14:53:41;;;;;;;0.00;0.00;;;;;;;20.30;46.86;101340.28;2609227;31;20690;-53
2021/10/14 14:56:08;;;;;;;0.00;0.00;;;;;;;20.25;47.61;101345.81;2612319;31;20027;-51
2021/10/14 14:58:40;;;;;;;0.00;0.00;;;;;;;20.26;47.25;101347.53;2613231;31;20080;-52
2021/10/14 15:01:07;;;;;;;0.00;0.00;;;;;;;20.30;47.54;101335.81;2613270;31;20041;-52
2021/10/14 15:03:34;;;;;;;0.00;0.00;;;;;;;20.32;47.22;101330.44;2610867;31;20041;-54
2021/10/14 15:06:01;;;;;;;0.00;0.00;;;;;;;20.32;47.07;101328.63;2609792;31;20936;-51
2021/10/14 15:08:32;;;;;;;0.00;0.00;;;;;;;20.30;47.26;101330.53;2609378;31;20046;-52
2021/10/14 15:11:03;;;;;;;0.00;0.00;;;;;;;20.29;47.16;101323.50;2610126;31;20038;-52
2021/10/14 15:13:31;;;;;;;0.00;0.00;;;;;;;20.18;47.54;101325.88;2610336;31;20663;-52
2021/10/14 15:15:58;;;;;;;0.00;0.00;;;;;;;20.03;47.86;101308.13;2609186;31;20034;-52
2021/10/14 15:18:26;;;;;;;0.08;0.08;;;;;;;19.99;48.16;101310.06;2608506;36;20046;-50
2021/10/14 15:20:54;;;;;;;0.00;0.00;;;;;;;20.00;48.23;101310.94;2610158;31;20457;-53
2021/10/14 15:23:21;;;;;;;0.00;0.00;;;;;;;19.90;47.64;101319.34;2609188;36;20034;-54
2021/10/14 15:25:48;;;;;;;0.00;0.00;;;;;;;19.85;48.43;101318.72;2610312;31;20030;-50
2021/10/14 15:28:15;;;;;;;0.00;0.00;;;;;;;19.77;48.40;101314.75;2609114;31;20035;-53
2021/10/14 15:30:42;;;;;;;0.00;0.00;;;;;;;19.67;49.19;101315.25;2610565;31;20034;-53
2021/10/14 15:33:09;;;;;;;0.00;0.00;;;;;;;19.58;49.31;101310.38;2609003;31;20045;-55
2021/10/14 15:35:38;;;;;;;0.00;0.00;;;;;;;19.49;49.54;101312.63;2610092;31;20037;-55
2021/10/14 15:38:06;;;;;;;0.00;0.00;;;;;;;19.38;49.58;101308.72;2609704;31;20090;-54
2021/10/14 15:40:34;;;;;;;0.00;0.00;;;;;;;19.25;50.78;101297.00;2610705;31;20039;-54
2021/10/14 15:43:02;;;;;;;;;;;;;;;19.27;49.45;101295.16;2609138;36;20054;-50
2021/10/14 15:45:29;;;;;;;0.00;0.00;;;;;;;19.09;50.84;101298.69;2610529;31;19950;-52
2021/10/14 15:47:56;;;;;;;0.00;0.00;;;;;;;19.03;50.83;101293.72;2610139;31;20026;-50
2021/10/14 15:50:23;;;;;;;0.00;0.00;;;;;;;18.93;51.04;101295.94;2609040;31;20571;-53
2021/10/14 15:52:50;;;;;;;0.00;0.00;;;;;;;18.83;51.32;101292.00;2610405;31;20034;-54
2021/10/14 15:55:17;;;;;;;0.00;0.00;;;;;;;18.74;52.20;101285.38;2609967;31;20038;-54
2021/10/14 15:57:44;;;;;;;0.00;0.00;;;;;;;18.64;52.06;101282.25;2611685;31;20276;-53
2021/10/14 16:00:12;;;;;;;0.00;0.00;;;;;;;18.56;52.13;101267.69;2609196;36;20039;-55
2021/10/14 16:02:39;;;;;;;;;;;;;;;18.55;51.78;101268.59;2608250;31;20042;-53
2021/10/14 16:05:07;;;;;;;0.00;0.00;;;;;;;18.40;52.66;101279.00;2608821;31;19953;-51
2021/10/14 16:07:34;;;;;;;;;;;;;;;18.38;51.70;101278.19;2607616;36;20034;-53
2021/10/14 16:10:03;;;;;;;0.00;0.00;;;;;;;18.25;52.94;101281.44;2609115;31;19978;-51
2021/10/14 16:12:30;;;;;;;0.00;0.00;;;;;;;18.16;53.61;101277.47;2609990;31;20062;-54
2021/10/14 16:14:57;;;;;;;0.00;0.00;;;;;;;18.07;53.55;101272.59;2608999;36;20030;-50
2021/10/14 16:17:25;;;;;;;0.00;0.00;;;;;;;18.01;54.19;101280.78;2608901;31;20031;-54
2021/10/14 16:19:52;;;;;;;0.00;0.00;;;;;;;17.94;54.30;101268.75;2610267;31;20062;-52
2021/10/14 16:22:18;;;;;;;0.00;0.00;;;;;;;17.89;54.29;101261.91;2610109;31;20030;-51
2021/10/14 16:24:45;;;;;;;0.00;0.00;;;;;;;17.85;54.79;101265.59;2607835;36;20030;-50
2021/10/14 16:27:12;;;;;;;0.00;0.00;;;;;;;17.82;54.95;101275.44;2610202;31;20896;-52
2021/10/14 16:29:40;;;;;;;0.00;0.00;;;;;;;17.78;55.02;101287.91;2609732;31;20031;-53
2021/10/14 16:32:09;;;;;;;;;;;;;;;17.80;53.27;101291.38;2608451;36;20046;-53
2021/10/14 16:34:36;;;;;;;0.00;0.00;;;;;;;17.72;55.31;101288.16;2607323;36;19957;-52
2021/10/14 16:37:03;;;;;;;0.00;0.00;;;;;;;17.67;55.61;101279.56;2611073;31;20311;-53
2021/10/14 16:39:31;;;;;;;0.00;0.00;;;;;;;17.63;55.48;101272.69;2608348;36;20034;-52
2021/10/14 16:41:58;;;;;;;0.00;0.00;;;;;;;17.59;55.95;101266.72;2608488;31;20039;-54
2021/10/14 16:44:25;;;;;;;0.00;0.00;;;;;;;17.56;56.34;101272.13;2608707;36;20721;-54
2021/10/14 16:46:52;;;;;;;0.00;0.00;;;;;;;17.53;56.14;101266.09;2609960;31;20042;-55
2021/10/14 16:49:19;;;;;;;0.00;0.00;;;;;;;17.48;56.52;101262.78;2608959;36;20042;-53
2021/10/14 16:51:48;;;;;;;0.00;0.00;;;;;;;17.49;56.46;101264.53;2609442;31;20038;-51
2021/10/14 16:54:30;;;;;;;0.00;0.00;;;;;;;17.48;55.66;101262.78;1011866;36;10003121;-53
2021/10/14 16:56:59;;;;;;;0.00;0.00;;;;;;;17.44;56.84;101271.78;2356947;36;10001245;-51
2021/10/14 16:59:25;;;;;;;0.00;0.00;;;;;;;17.43;56.98;101267.41;2609649;31;20906;-54
2021/10/14 17:01:52;;;;;;;0.10;0.10;;;;;;;17.42;57.51;101273.63;2611496;31;20186;-51
2021/10/14 17:04:20;;;;;;;0.00;0.00;;;;;;;17.40;57.31;101276.34;2609204;31;20037;-55
2021/10/14 17:06:47;;;;;;;0.00;0.00;;;;;;;17.37;57.48;101277.31;2610903;31;20034;-52
2021/10/14 17:09:15;;;;;;;0.00;0.00;;;;;;;17.37;57.33;101277.31;2608406;31;20042;-54
2021/10/14 17:11:43;;;;;;;0.00;0.00;;;;;;;17.35;57.82;101267.75;2610591;31;20057;-53
2021/10/14 17:14:19;;;;;;;0.00;0.00;;;;;;;17.34;57.40;101274.81;2608899;31;20043;-53
2021/10/14 17:16:46;;;;;;;0.00;0.00;;;;;;;17.32;57.53;101275.78;2608402;31;20041;-52
2021/10/14 17:19:21;;;;;;;0.00;0.00;;;;;;;17.30;58.14;101280.28;2608193;31;20038;-51
2021/10/14 17:38:14;;;;;;;0.00;0.00;;;;;;;17.12;58.86;101281.88;2608383;31;21051;-53
2021/10/14 17:40:54;;;;;;;0.00;0.00;;;;;;;17.10;58.70;101283.72;2609477;31;20053;-52
2021/10/14 17:43:23;;;;;;;0.00;0.00;;;;;;;17.09;59.08;101282.03;2610785;31;20462;-54
2021/10/14 17:48:27;;;;;;;0.00;0.00;;;;;;;16.97;59.10;101262.25;2608987;36;20046;-50
2021/10/14 17:50:55;;;;;;;0.00;0.00;;;;;;;17.01;59.46;101269.13;2610511;31;20031;-52
2021/10/14 17:53:22;;;;;;;0.00;0.00;;;;;;;17.00;59.16;101274.47;2609135;31;20756;-54
2021/10/14 17:55:49;;;;;;;0.00;0.00;;;;;;;16.97;59.68;101272.78;2609336;36;20030;-55
2021/10/14 17:58:16;;;;;;;0.00;0.00;;;;;;;16.94;59.98;101274.72;2607079;36;20034;-54
2021/10/14 18:00:47;;;;;;;0.00;0.00;;;;;;;16.93;59.33;101273.88;2607476;31;20030;-55
2021/10/14 18:38:39;;;;;;;0.00;0.00;;;;;;;16.41;62.86;101267.06;2612108;31;20030;-51
2021/10/14 18:41:06;;;;;;;0.00;0.00;;;;;;;16.39;62.42;101279.47;2609040;36;20041;-54
2021/10/14 18:43:33;;;;;;;0.00;0.00;;;;;;;16.33;62.88;101260.31;2610059;31;20782;-52
2021/10/14 18:46:02;;;;;;;0.00;0.00;;;;;;;16.28;62.96;101250.88;2610092;31;20656;-52
2021/10/14 18:48:34;;;;;;;0.00;0.00;;;;;;;16.30;63.15;101247.25;2609745;31;20035;-54
2021/10/14 18:51:04;;;;;;;0.00;0.00;;;;;;;16.27;63.17;101250.00;2611911;31;20038;-54
2021/10/14 18:53:31;;;;;;;0.00;0.00;;;;;;;16.25;63.08;101251.84;2608312;31;20035;-53
2021/10/14 18:55:58;;;;;;;0.00;0.00;;;;;;;16.19;63.24;101252.06;2610034;31;20600;-50
2021/10/14 18:58:26;;;;;;;0.00;0.00;;;;;;;16.21;63.15;101260.75;2608985;36;20037;-51
2021/10/14 19:00:53;;;;;;;0.00;0.00;;;;;;;16.20;63.17;101266.94;2610006;31;20283;-51
2021/10/14 19:03:32;;;;;;;0.00;0.00;;;;;;;16.17;63.08;101269.72;2609580;31;20134;-54
2021/10/14 19:06:10;;;;;;;0.00;0.00;;;;;;;16.17;63.66;101276.75;2609197;31;20191;-52
2021/10/14 19:16:50;;;;;;;0.00;0.00;;;;;;;16.11;63.72;101275.19;2610282;31;20031;-55
2021/10/14 19:19:18;;;;;;;0.00;0.00;;;;;;;16.08;63.88;101264.78;2608329;31;20034;-51
2021/10/14 19:28:37;;;;;;;0.00;0.00;;;;;;;15.99;63.77;101273.00;2610049;31;20065;-55
2021/10/14 20:14:16;;;;;;;0.00;0.00;;;;;;;15.46;64.84;101265.16;2611159;31;20057;-54
2021/10/14 20:20:13;;;;;;;0.00;0.00;;;;;;;15.41;64.92;101267.09;2613126;31;20067;-51
2021/10/14 20:22:15;;;;;;;0.00;0.00;;;;;;;15.38;65.09;101257.53;2611112;31;20553;-51
2021/10/14 20:24:42;;;;;;;0.00;0.00;;;;;;;15.36;65.23;101264.66;2610956;31;20038;-50
2021/10/14 20:27:09;;;;;;;0.00;0.00;;;;;;;15.34;65.30;101257.69;2608897;31;20302;-52
2021/10/14 20:29:36;;;;;;;0.00;0.00;;;;;;;15.30;65.34;101252.53;2610490;36;20271;-55
2021/10/14 20:32:03;;;;;;;0.00;0.00;;;;;;;15.29;65.57;101257.84;2606872;31;20038;-50
2021/10/14 20:34:44;;;;;;;0.00;0.00;;;;;;;15.27;65.58;101265.81;2610691;31;20038;-54
2021/10/14 20:37:11;;;;;;;0.00;0.00;;;;;;;15.17;65.83;101248.59;2608532;31;20034;-52
2021/10/14 20:39:38;;;;;;;0.00;0.00;;;;;;;15.24;66.00;101265.88;2608433;31;20407;-55
2021/10/14 20:42:05;;;;;;;0.00;0.00;;;;;;;15.23;65.68;101263.31;2610897;31;20437;-53
2021/10/14 20:44:32;;;;;;;0.00;0.00;;;;;;;15.20;66.22;101264.25;2609498;36;20054;-52
2021/10/14 20:46:59;;;;;;;0.00;0.00;;;;;;;15.20;66.18;101259.00;2609534;36;20042;-52
2021/10/14 20:49:25;;;;;;;0.00;0.00;;;;;;;15.20;66.43;101259.00;2610338;31;20034;-53
2021/10/14 20:52:02;;;;;;;0.00;0.00;;;;;;;15.19;66.23;101249.41;2608625;31;20037;-53
2021/10/14 20:54:47;;;;;;;0.00;0.00;;;;;;;15.17;66.18;101248.59;2605999;31;20030;-53
2021/10/14 21:02:46;;;;;;;0.00;0.00;;;;;;;15.13;66.67;101257.50;2608529;31;20171;-53
2021/10/14 21:05:13;;;;;;;0.00;0.00;;;;;;;15.11;66.42;101243.53;2608389;31;20034;-52
2021/10/14 21:07:41;;;;;;;0.00;0.00;;;;;;;15.10;66.93;101251.47;2608866;31;20065;-53
2021/10/14 21:10:08;;;;;;;0.00;0.00;;;;;;;15.07;66.79;101248.94;2608906;31;20046;-54
2021/10/14 21:12:35;;;;;;;0.00;0.00;;;;;;;15.06;66.33;101256.00;2609599;31;20054;-55
2021/10/14 21:15:03;;;;;;;0.00;0.00;;;;;;;15.08;66.53;101253.28;2609129;31;20030;-53
2021/10/14 21:17:31;;;;;;;0.00;0.00;;;;;;;15.08;66.50;101253.28;2610863;31;20133;-52
2021/10/14 21:19:58;;;;;;;0.00;0.00;;;;;;;15.08;66.41;101258.56;2610193;31;20554;-54
2021/10/14 21:22:25;;;;;;;0.00;0.00;;;;;;;15.07;66.41;101260.34;2608670;36;20457;-54
2021/10/14 21:24:53;;;;;;;0.00;0.00;;;;;;;15.07;66.83;101256.84;2622646;31;20034;-50
2021/10/14 21:30:15;;;;;;;0.00;0.00;;;;;;;15.03;66.60;101261.34;2609825;36;20026;-53
2021/10/14 21:37:52;;;;;;;0.00;0.00;;;;;;;15.11;66.91;101269.84;2608513;31;20972;-50
2021/10/14 21:40:19;;;;;;;0.00;0.00;;;;;;;15.14;66.66;101271.50;2609345;31;20551;-54
2021/10/14 21:42:46;;;;;;;0.00;0.00;;;;;;;15.14;66.86;101269.72;2609813;31;20035;-52
2021/10/14 21:45:13;;;;;;;0.00;0.00;;;;;;;15.18;66.88;101281.88;2607728;36;20034;-51
2021/10/14 21:47:40;;;;;;;0.00;0.00;;;;;;;15.16;66.73;101273.19;2609981;31;20334;-53
2021/10/14 21:50:08;;;;;;;0.00;0.00;;;;;;;15.09;66.96;101245.34;2609777;31;20038;-54
2021/10/14 21:52:35;;;;;;;0.00;0.00;;;;;;;15.24;66.67;101271.16;2609292;31;20414;-52
2021/10/14 21:55:03;;;;;;;0.00;0.00;;;;;;;15.27;66.12;101276.31;2609481;31;20135;-55
2021/10/14 21:57:30;;;;;;;0.00;0.00;;;;;;;15.28;66.27;101283.31;2606657;36;20069;-53
2021/10/14 21:59:58;;;;;;;0.00;0.00;;;;;;;15.32;66.59;101282.28;2607700;31;20619;-55
2021/10/14 22:02:26;;;;;;;0.00;0.00;;;;;;;15.34;66.47;101281.38;2609598;31;20034;-54
2021/10/14 22:04:53;;;;;;;0.00;0.00;;;;;;;15.35;66.51;101283.94;2609328;31;20037;-55
2021/10/14 22:07:20;;;;;;;0.00;0.00;;;;;;;15.37;66.92;101281.28;2606895;31;20350;-54
2021/10/14 22:09:49;;;;;;;0.00;0.00;;;;;;;15.40;66.93;101291.69;2607743;31;20279;-53
2021/10/14 22:12:18;;;;;;;0.00;0.00;;;;;;;15.43;66.48;101286.34;2608636;31;20034;-54
2021/10/14 22:14:45;;;;;;;0.00;0.00;;;;;;;15.37;66.42;101276.03;2606994;31;20035;-55
2021/10/14 22:17:12;;;;;;;0.00;0.00;;;;;;;15.47;66.71;101287.97;2608031;31;20137;-54
2021/10/14 22:19:39;;;;;;;0.00;0.00;;;;;;;15.49;66.45;101291.41;2610615;31;20820;-53
2021/10/14 22:22:07;;;;;;;0.00;0.00;;;;;;;15.50;66.43;101283.44;2610049;31;20971;-53
2021/10/14 22:24:36;;;;;;;0.00;0.00;;;;;;;15.54;66.26;101284.19;2610150;31;20046;-53
2021/10/14 22:27:03;;;;;;;0.00;0.00;;;;;;;15.51;66.20;101279.91;2611763;31;20137;-51
2021/10/14 22:29:30;;;;;;;0.00;0.00;;;;;;;15.57;66.04;101289.38;2610932;31;20054;-56
2021/10/14 22:32:02;;;;;;;0.00;0.00;;;;;;;15.62;66.23;101292.72;2612547;31;20030;-51
2021/10/14 22:34:30;;;;;;;0.00;0.00;;;;;;;15.62;66.75;101297.97;2609812;36;20038;-51
2021/10/14 22:36:57;;;;;;;0.00;0.00;;;;;;;15.63;66.50;101290.94;2612642;31;21035;-52
2021/10/14 22:39:24;;;;;;;0.00;0.00;;;;;;;15.62;67.17;101292.72;2612332;31;20110;-51
2021/10/14 22:41:53;;;;;;;0.00;0.00;;;;;;;15.65;67.11;101295.25;2608269;31;20042;-52
2021/10/14 22:44:20;;;;;;;0.00;0.00;;;;;;;15.60;67.09;101291.03;2609156;31;20042;-52
2021/10/14 22:46:47;;;;;;;0.00;0.00;;;;;;;15.66;67.17;101304.00;2610467;31;20589;-56
2021/10/14 22:49:14;;;;;;;0.00;0.00;;;;;;;15.65;66.83;101303.16;2610219;31;20038;-54
2021/10/14 22:51:42;;;;;;;0.00;0.00;;;;;;;15.65;66.87;101297.88;2608592;36;20034;-53
2021/10/14 22:54:12;;;;;;;0.00;0.00;;;;;;;15.68;66.93;101308.31;2609264;36;20035;-55
2021/10/14 22:56:39;;;;;;;0.00;0.00;;;;;;;15.66;67.41;101302.25;2609341;31;20042;-56
2021/10/14 22:59:06;;;;;;;0.00;0.00;;;;;;;15.66;67.07;101299.63;2607274;31;20110;-53
2021/10/14 23:01:33;;;;;;;0.00;0.00;;;;;;;15.67;67.40;101306.59;2611555;31;20652;-54
2021/10/14 23:04:00;;;;;;;0.00;0.00;;;;;;;15.66;66.95;101309.28;2609934;31;20146;-51
2021/10/14 23:06:28;;;;;;;0.00;0.00;;;;;;;15.66;67.26;101310.16;2608891;36;20057;-54
2021/10/14 23:08:55;;;;;;;0.00;0.00;;;;;;;15.66;67.29;101314.53;2608303;36;20129;-53
2021/10/14 23:11:22;;;;;;;0.00;0.00;;;;;;;15.66;67.24;101304.91;2607401;31;20038;-54
2021/10/14 23:13:49;;;;;;;0.00;0.00;;;;;;;15.66;67.05;101304.91;2606763;31;20069;-50
2021/10/14 23:16:15;;;;;;;0.00;0.00;;;;;;;15.67;67.29;101301.34;2611010;31;20446;-51
2021/10/14 23:18:42;;;;;;;0.00;0.00;;;;;;;15.69;67.76;101309.19;2609519;31;20564;-52
2021/10/14 23:21:09;;;;;;;0.00;0.00;;;;;;;15.70;67.67;101305.63;2610973;31;20042;-53
2021/10/14 23:23:39;;;;;;;0.00;0.00;;;;;;;15.72;67.38;101304.69;2610033;36;20066;-54
2021/10/14 23:26:07;;;;;;;0.00;0.00;;;;;;;15.71;67.50;101308.22;2612240;31;20034;-55
2021/10/14 23:28:34;;;;;;;0.00;0.00;;;;;;;15.66;67.90;101299.63;2619835;31;20035;-52
2021/10/14 23:31:01;;;;;;;0.00;0.00;;;;;;;15.73;68.18;101314.28;2618110;31;20035;-51
2021/10/14 23:33:28;;;;;;;0.00;0.00;;;;;;;15.72;68.43;101314.34;2613480;31;20109;-53
2021/10/14 23:35:55;;;;;;;0.00;0.00;;;;;;;15.72;68.34;101317.00;2612362;31;20026;-53
2021/10/14 23:38:22;;;;;;;0.00;0.00;;;;;;;15.71;68.71;101313.50;2633449;31;20035;-50
2021/10/14 23:40:49;;;;;;;0.00;0.00;;;;;;;15.70;68.44;101317.03;2620763;31;20061;-54
2021/10/14 23:43:16;;;;;;;0.00;0.00;;;;;;;15.70;68.77;101322.28;2614194;31;20039;-55
2021/10/14 23:45:43;;;;;;;0.00;0.00;;;;;;;15.70;68.96;101322.28;2615042;31;20038;-52
2021/10/14 23:48:11;;;;;;;0.00;0.00;;;;;;;15.71;68.26;101328.41;2611719;36;20054;-52
2021/10/14 23:50:38;;;;;;;0.00;0.00;;;;;;;15.69;67.81;101331.09;2613292;31;20027;-54
2021/10/14 23:53:05;;;;;;;0.00;0.00;;;;;;;15.70;68.50;101327.56;2612232;31;20618;-54
2021/10/14 23:55:33;;;;;;;0.00;0.00;;;;;;;15.71;68.91;101334.56;2622920;31;20263;-51
2021/10/14 23:58:00;;;;;;;0.00;0.00;;;;;;;15.72;68.23;101338.91;2656108;31;20465;-55
